createdAt,value
2023-05-18T00:00:02.435Z,2.45
2023-05-18T00:02:29.077Z,2.38
2023-05-18T00:04:55.720Z,2.60
2023-05-18T00:07:22.518Z,2.42
2023-05-18T00:09:49.062Z,2.90
2023-05-18T00:12:15.684Z,2.58
2023-05-18T00:14:42.257Z,2.50
2023-05-18T00:17:08.753Z,2.80
2023-05-18T00:19:36.578Z,2.70
2023-05-18T00:22:03.675Z,2.63
2023-05-18T00:24:30.719Z,2.83
2023-05-18T00:26:57.319Z,2.90
2023-05-18T00:29:23.892Z,2.53
2023-05-18T00:31:50.504Z,2.63
2023-05-18T00:34:17.125Z,2.72
2023-05-18T00:36:43.800Z,2.53
2023-05-18T00:39:10.408Z,2.72
2023-05-18T00:41:37.113Z,2.58
2023-05-18T00:44:05.114Z,2.67
2023-05-18T00:46:32.356Z,2.78
2023-05-18T00:48:59.124Z,2.60
2023-05-18T00:51:26.311Z,2.83
2023-05-18T00:53:55.072Z,2.70
2023-05-18T00:56:26.368Z,2.90
2023-05-18T00:58:57.321Z,2.90
2023-05-18T01:01:28.865Z,2.63
2023-05-18T01:03:57.282Z,2.80
2023-05-18T01:06:25.519Z,2.88
2023-05-18T01:08:55.693Z,2.85
2023-05-18T01:11:57.460Z,2.78
2023-05-18T01:14:45.769Z,2.67
2023-05-18T01:17:43.423Z,2.50
2023-05-18T01:20:33.624Z,3.00
2023-05-18T01:23:29.757Z,2.83
2023-05-18T01:25:56.316Z,2.65
2023-05-18T01:28:29.883Z,2.60
2023-05-18T01:30:57.456Z,2.75
2023-05-18T01:33:26.835Z,2.75
2023-05-18T01:35:53.576Z,3.20
2023-05-18T01:38:23.995Z,2.63
2023-05-18T01:41:00.652Z,3.58
2023-05-18T01:43:33.305Z,2.88
2023-05-18T01:46:08.735Z,2.53
2023-05-18T01:48:39.368Z,2.92
2023-05-18T01:51:08.503Z,2.67
2023-05-18T01:53:51.328Z,2.60
2023-05-18T01:56:18.224Z,2.72
2023-05-18T01:58:45.259Z,2.88
2023-05-18T02:01:12.124Z,2.90
2023-05-18T02:03:38.799Z,3.13
2023-05-18T02:06:05.555Z,2.95
2023-05-18T02:08:32.100Z,2.95
2023-05-18T02:10:58.611Z,3.35
2023-05-18T02:13:25.279Z,3.25
2023-05-18T02:15:51.892Z,3.10
2023-05-18T02:18:18.444Z,3.13
2023-05-18T02:20:48.895Z,3.30
2023-05-18T02:23:16.034Z,3.40
2023-05-18T02:25:44.521Z,3.08
2023-05-18T02:30:37.732Z,2.80
2023-05-18T02:33:04.508Z,3.20
2023-05-18T02:35:31.674Z,2.75
2023-05-18T02:37:58.482Z,2.92
2023-05-18T02:40:25.101Z,3.13
2023-05-18T02:42:51.657Z,3.15
2023-05-18T02:45:20.798Z,3.13
2023-05-18T02:47:47.912Z,2.88
2023-05-18T02:50:14.604Z,3.30
2023-05-18T02:52:41.776Z,3.13
2023-05-18T02:55:08.693Z,3.00
2023-05-18T02:57:35.284Z,2.92
2023-05-18T03:00:01.779Z,3.50
2023-05-18T03:02:28.536Z,2.67
2023-05-18T03:04:57.547Z,2.75
2023-05-18T03:07:24.350Z,3.08
2023-05-18T03:09:50.941Z,2.88
2023-05-18T03:12:17.436Z,2.88
2023-05-18T03:14:43.987Z,2.88
2023-05-18T03:17:10.649Z,3.03
2023-05-18T03:19:37.157Z,2.75
2023-05-18T03:22:04.795Z,2.90
2023-05-18T03:24:40.038Z,2.95
2023-05-18T03:27:07.414Z,3.03
2023-05-18T03:29:36.888Z,3.38
2023-05-18T03:32:03.730Z,2.97
2023-05-18T03:34:30.302Z,3.17
2023-05-18T03:36:58.176Z,2.90
2023-05-18T03:39:24.709Z,3.28
2023-05-18T03:41:51.768Z,3.03
2023-05-18T03:44:18.431Z,3.08
2023-05-18T03:46:45.198Z,3.13
2023-05-18T03:49:11.906Z,2.92
2023-05-18T03:51:38.524Z,3.25
2023-05-18T03:54:05.119Z,2.75
2023-05-18T03:56:31.866Z,2.92
2023-05-18T03:58:58.732Z,3.13
2023-05-18T04:01:25.284Z,3.20
2023-05-18T04:03:52.565Z,3.00
2023-05-18T04:06:22.594Z,3.10
2023-05-18T04:08:50.247Z,3.03
2023-05-18T04:11:16.829Z,2.80
2023-05-18T04:13:43.841Z,2.95
2023-05-18T04:16:13.917Z,3.30
2023-05-18T04:18:41.640Z,3.03
2023-05-18T04:21:09.616Z,2.80
2023-05-18T04:23:39.014Z,2.75
2023-05-18T04:26:06.336Z,2.75
2023-05-18T04:28:33.270Z,2.60
2023-05-18T04:31:01.738Z,2.72
2023-05-18T04:33:29.968Z,3.03
2023-05-18T04:35:58.839Z,2.85
2023-05-18T04:38:25.848Z,3.20
2023-05-18T04:40:52.410Z,3.25
2023-05-18T04:43:21.081Z,2.90
2023-05-18T04:48:20.209Z,2.72
2023-05-18T04:50:47.131Z,3.05
2023-05-18T04:53:13.866Z,2.95
2023-05-18T04:55:42.742Z,2.97
2023-05-18T04:58:10.415Z,3.05
2023-05-18T05:00:37.657Z,2.95
2023-05-18T05:03:04.515Z,2.85
2023-05-18T05:05:31.719Z,2.80
2023-05-18T05:07:59.072Z,2.92
2023-05-18T05:10:25.920Z,2.88
2023-05-18T05:12:52.684Z,2.80
2023-05-18T05:15:20.452Z,3.38
2023-05-18T05:17:48.114Z,3.30
2023-05-18T05:20:14.830Z,2.95
2023-05-18T05:22:41.559Z,2.65
2023-05-18T05:25:08.693Z,2.95
2023-05-18T05:27:35.222Z,2.72
2023-05-18T05:30:01.806Z,3.55
2023-05-18T05:32:28.334Z,2.88
2023-05-18T05:34:54.944Z,3.10
2023-05-18T05:37:21.483Z,2.83
2023-05-18T05:39:48.016Z,2.63
2023-05-18T05:42:14.783Z,2.80
2023-05-18T05:44:41.518Z,3.05
2023-05-18T05:47:08.798Z,2.70
2023-05-18T05:49:36.800Z,2.80
2023-05-18T05:52:03.643Z,2.97
2023-05-18T05:54:30.453Z,2.75
2023-05-18T05:56:57.052Z,2.75
2023-05-18T05:59:23.670Z,2.70
2023-05-18T06:01:50.856Z,2.72
2023-05-18T06:04:17.572Z,2.47
2023-05-18T06:06:44.184Z,2.97
2023-05-18T06:09:10.979Z,3.13
2023-05-18T06:11:37.948Z,2.58
2023-05-18T06:14:04.558Z,2.60
2023-05-18T06:16:31.166Z,2.70
2023-05-18T06:18:57.824Z,2.28
2023-05-18T06:21:24.528Z,2.65
2023-05-18T06:23:51.054Z,2.17
2023-05-18T06:26:17.652Z,2.22
2023-05-18T06:28:44.247Z,2.50
2023-05-18T06:31:11.183Z,2.58
2023-05-18T06:33:38.537Z,2.30
2023-05-18T06:36:05.411Z,2.20
2023-05-18T06:38:31.945Z,1.88
2023-05-18T06:40:58.567Z,2.40
2023-05-18T06:43:28.610Z,2.40
2023-05-18T06:45:56.090Z,2.03
2023-05-18T06:48:26.142Z,2.05
2023-05-18T06:50:52.788Z,1.85
2023-05-18T06:53:19.391Z,2.20
2023-05-18T06:55:46.014Z,2.08
2023-05-18T06:58:13.113Z,2.60
2023-05-18T07:00:39.891Z,2.33
2023-05-18T07:03:06.650Z,2.10
2023-05-18T07:05:33.409Z,1.85
2023-05-18T07:08:00.104Z,1.88
2023-05-18T07:10:28.891Z,1.85
2023-05-18T07:12:56.067Z,1.67
2023-05-18T07:15:25.843Z,1.80
2023-05-18T07:17:52.766Z,2.05
2023-05-18T07:20:19.490Z,2.08
2023-05-18T07:22:46.082Z,2.47
2023-05-18T07:25:12.585Z,1.83
2023-05-18T07:27:39.288Z,1.85
2023-05-18T07:30:07.325Z,1.80
2023-05-18T07:32:33.916Z,1.75
2023-05-18T07:35:00.688Z,2.10
2023-05-18T07:37:27.234Z,1.90
2023-05-18T07:39:53.778Z,2.25
2023-05-18T07:42:20.333Z,1.95
2023-05-18T07:44:46.939Z,2.03
2023-05-18T07:47:13.476Z,2.50
2023-05-18T07:49:39.996Z,2.20
2023-05-18T07:52:08.595Z,2.08
2023-05-18T07:54:35.127Z,2.00
2023-05-18T07:57:01.616Z,2.00
2023-05-18T07:59:28.186Z,2.00
2023-05-18T08:01:55.032Z,1.98
2023-05-18T08:04:21.670Z,1.63
2023-05-18T08:06:48.232Z,1.95
2023-05-18T08:09:14.732Z,2.20
2023-05-18T08:11:43.191Z,1.77
2023-05-18T08:14:09.636Z,2.20
2023-05-18T08:16:37.705Z,2.08
2023-05-18T08:19:04.442Z,1.92
2023-05-18T08:21:31.141Z,1.90
2023-05-18T08:23:57.644Z,2.10
2023-05-18T08:26:24.600Z,2.35
2023-05-18T08:28:51.159Z,2.10
2023-05-18T08:31:17.795Z,2.33
2023-05-18T08:33:44.740Z,2.15
2023-05-18T08:36:11.523Z,2.20
2023-05-18T08:38:38.222Z,2.40
2023-05-18T08:41:26.469Z,2.15
2023-05-18T08:44:20.581Z,2.17
2023-05-18T08:46:52.073Z,2.25
2023-05-18T08:49:21.623Z,2.10
2023-05-18T08:51:56.105Z,2.10
2023-05-18T08:54:23.907Z,2.13
2023-05-18T08:56:52.838Z,2.45
2023-05-18T08:59:24.006Z,1.95
2023-05-18T09:01:52.111Z,1.90
2023-05-18T09:04:20.209Z,2.03
2023-05-18T09:06:48.346Z,2.33
2023-05-18T09:09:16.273Z,2.00
2023-05-18T09:11:43.434Z,2.03
2023-05-18T09:14:10.524Z,2.28
2023-05-18T09:16:37.349Z,2.40
2023-05-18T09:19:04.160Z,2.15
2023-05-18T09:21:32.713Z,2.20
2023-05-18T09:24:01.138Z,2.10
2023-05-18T09:26:27.921Z,1.90
2023-05-18T09:28:54.968Z,2.28
2023-05-18T09:31:24.615Z,2.33
2023-05-18T09:33:52.394Z,2.22
2023-05-18T09:36:25.095Z,2.08
2023-05-18T09:38:52.167Z,2.40
2023-05-18T09:41:18.922Z,2.50
2023-05-18T09:43:48.094Z,2.35
2023-05-18T09:46:15.046Z,2.60
2023-05-18T09:48:44.453Z,2.90
2023-05-18T09:51:16.614Z,2.50
2023-05-18T09:53:54.515Z,2.45
2023-05-18T09:56:22.990Z,2.35
2023-05-18T09:58:49.861Z,2.50
2023-05-18T10:01:16.740Z,2.50
2023-05-18T10:03:45.634Z,2.60
2023-05-18T10:06:17.304Z,2.70
2023-05-18T10:08:45.605Z,2.60
2023-05-18T10:11:12.803Z,2.33
2023-05-18T10:13:39.604Z,2.42
2023-05-18T10:16:08.026Z,2.33
2023-05-18T10:18:36.964Z,2.65
2023-05-18T10:21:05.805Z,2.38
2023-05-18T10:23:34.548Z,2.40
2023-05-18T10:26:05.565Z,2.78
2023-05-18T10:28:38.021Z,2.50
2023-05-18T10:31:08.448Z,2.47
2023-05-18T10:33:37.632Z,2.47
2023-05-18T10:36:05.415Z,2.40
2023-05-18T10:38:33.637Z,2.47
2023-05-18T10:43:28.429Z,2.30
2023-05-18T10:45:57.711Z,2.58
2023-05-18T10:48:25.603Z,2.88
2023-05-18T10:50:54.155Z,2.47
2023-05-18T10:53:30.909Z,2.30
2023-05-18T10:55:57.771Z,2.33
2023-05-18T10:58:27.976Z,2.60
2023-05-18T11:00:58.233Z,2.38
2023-05-18T11:03:27.162Z,2.35
2023-05-18T11:06:10.924Z,2.70
2023-05-18T11:08:49.048Z,2.40
2023-05-18T11:11:19.255Z,2.53
2023-05-18T11:13:51.713Z,2.58
2023-05-18T11:16:19.527Z,2.78
2023-05-18T11:18:51.578Z,2.47
2023-05-18T11:21:34.760Z,2.78
2023-05-18T11:24:32.869Z,2.50
2023-05-18T11:27:21.214Z,2.65
2023-05-18T11:29:49.681Z,2.58
2023-05-18T11:32:30.494Z,2.55
2023-05-18T11:34:58.313Z,2.53
2023-05-18T11:37:39.898Z,2.50
2023-05-18T11:40:11.494Z,2.20
2023-05-18T11:42:38.966Z,2.58
2023-05-18T11:45:13.312Z,2.40
2023-05-18T11:50:10.394Z,2.28
2023-05-18T11:52:52.340Z,2.40
2023-05-18T11:55:21.013Z,2.67
2023-05-18T11:57:52.512Z,2.30
2023-05-18T12:00:20.518Z,2.25
2023-05-18T12:02:48.799Z,2.75
2023-05-18T12:05:16.015Z,2.67
2023-05-18T12:07:44.746Z,2.55
2023-05-18T12:10:17.070Z,2.50
2023-05-18T12:12:47.641Z,2.90
2023-05-18T12:15:16.868Z,2.30
2023-05-18T12:17:53.058Z,2.53
2023-05-18T12:20:21.957Z,2.53
2023-05-18T12:22:52.174Z,2.33
2023-05-18T12:25:20.015Z,2.47
2023-05-18T12:27:49.959Z,2.42
2023-05-18T12:30:24.782Z,2.50
2023-05-18T12:32:56.355Z,2.70
2023-05-18T12:35:27.903Z,2.80
2023-05-18T12:37:56.100Z,2.70
2023-05-18T12:40:23.476Z,2.90
2023-05-18T12:42:59.758Z,2.42
2023-05-18T12:45:28.156Z,2.40
2023-05-18T12:47:56.371Z,2.45
2023-05-18T12:50:25.626Z,2.75
2023-05-18T12:52:52.680Z,2.65
2023-05-18T12:55:22.026Z,2.92
2023-05-18T12:58:07.339Z,2.80
2023-05-18T13:00:37.949Z,3.20
2023-05-18T13:03:11.904Z,3.05
2023-05-18T13:05:45.564Z,2.70
2023-05-18T13:08:18.858Z,2.95
2023-05-18T13:10:45.740Z,2.70
2023-05-18T13:13:16.296Z,2.72
2023-05-18T13:15:44.028Z,3.10
2023-05-18T13:18:11.890Z,2.72
2023-05-18T13:20:51.417Z,2.90
2023-05-18T13:23:21.346Z,2.60
2023-05-18T13:25:48.244Z,3.20
2023-05-18T13:28:17.355Z,2.35
2023-05-18T13:30:45.874Z,2.35
2023-05-18T13:33:12.771Z,2.50
2023-05-18T13:35:44.545Z,2.70
2023-05-18T13:38:14.738Z,2.63
2023-05-18T13:40:42.719Z,2.33
2023-05-18T13:43:11.158Z,2.60
2023-05-18T13:45:39.962Z,2.80
2023-05-18T13:48:09.640Z,2.75
2023-05-18T13:50:37.525Z,2.63
2023-05-18T13:53:04.483Z,2.50
2023-05-18T13:55:31.428Z,2.67
2023-05-18T13:57:58.316Z,2.30
2023-05-18T14:00:25.502Z,2.55
2023-05-18T14:02:53.439Z,2.95
2023-05-18T14:05:20.760Z,3.20
2023-05-18T14:07:47.576Z,2.50
2023-05-18T14:10:14.391Z,3.53
2023-05-18T14:12:44.073Z,2.63
2023-05-18T14:15:14.002Z,3.88
2023-05-18T14:17:42.161Z,2.70
2023-05-18T14:22:36.432Z,3.28
2023-05-18T14:25:03.152Z,2.72
2023-05-18T14:27:30.057Z,2.67
2023-05-18T14:29:56.969Z,2.72
2023-05-18T14:32:23.969Z,2.47
2023-05-18T14:34:52.153Z,2.60
2023-05-18T14:37:19.219Z,2.30
2023-05-18T14:39:45.858Z,2.50
2023-05-18T14:42:12.377Z,2.50
2023-05-18T14:44:38.929Z,2.65
2023-05-18T14:47:05.970Z,2.38
2023-05-18T14:49:33.120Z,2.60
2023-05-18T14:51:59.628Z,2.78
2023-05-18T14:54:26.289Z,2.42
2023-05-18T14:56:52.995Z,2.47
2023-05-18T14:59:19.608Z,2.45
2023-05-18T15:01:46.189Z,2.30
2023-05-18T15:04:14.787Z,2.38
2023-05-18T15:06:41.543Z,2.70
2023-05-18T15:09:08.436Z,2.28
2023-05-18T15:11:35.045Z,2.63
2023-05-18T15:14:01.578Z,2.50
2023-05-18T15:16:28.283Z,2.60
2023-05-18T15:18:55.051Z,2.40
2023-05-18T15:21:21.714Z,2.05
2023-05-18T15:23:48.205Z,2.20
2023-05-18T15:26:14.925Z,2.33
2023-05-18T15:28:43.449Z,2.80
2023-05-18T15:31:09.998Z,3.03
2023-05-18T15:33:37.001Z,2.70
2023-05-18T15:36:03.873Z,2.78
2023-05-18T15:38:30.468Z,3.08
2023-05-18T15:40:57.142Z,2.97
2023-05-18T15:43:26.136Z,2.85
2023-05-18T15:45:52.798Z,2.60
2023-05-18T15:48:19.425Z,2.72
2023-05-18T15:50:46.410Z,3.50
2023-05-18T15:53:13.059Z,2.42
2023-05-18T15:55:39.636Z,2.72
2023-05-18T15:58:06.183Z,2.70
2023-05-18T16:00:32.974Z,2.40
2023-05-18T16:02:59.830Z,2.67
2023-05-18T16:05:26.583Z,2.72
2023-05-18T16:07:53.277Z,2.40
2023-05-18T16:10:19.901Z,2.97
2023-05-18T16:12:46.969Z,2.75
2023-05-18T16:15:13.650Z,3.30
2023-05-18T16:17:40.351Z,3.20
2023-05-18T16:20:07.506Z,2.72
2023-05-18T16:22:34.076Z,2.38
2023-05-18T16:25:00.710Z,2.50
2023-05-18T16:27:27.335Z,2.58
2023-05-18T16:29:54.577Z,2.47
2023-05-18T16:32:21.184Z,2.63
2023-05-18T16:34:47.787Z,2.75
2023-05-18T16:37:14.429Z,2.58
2023-05-18T16:39:41.282Z,2.35
2023-05-18T16:42:09.435Z,2.50
2023-05-18T16:44:36.703Z,2.28
2023-05-18T16:47:03.321Z,2.60
2023-05-18T16:49:30.616Z,2.55
2023-05-18T16:51:57.152Z,2.42
2023-05-18T16:54:23.691Z,2.30
2023-05-18T16:56:50.333Z,2.65
2023-05-18T16:59:17.743Z,2.90
2023-05-18T17:01:44.349Z,2.78
2023-05-18T17:04:11.066Z,2.67
2023-05-18T17:06:37.773Z,3.72
2023-05-18T17:09:06.299Z,2.63
2023-05-18T17:11:33.206Z,2.80
2023-05-18T17:14:01.432Z,2.45
2023-05-18T17:16:28.401Z,2.33
2023-05-18T17:18:56.130Z,2.55
2023-05-18T17:21:23.869Z,3.03
2023-05-18T17:23:50.666Z,2.95
2023-05-18T17:26:17.756Z,2.72
2023-05-18T17:28:44.250Z,2.90
2023-05-18T17:31:10.879Z,2.60
2023-05-18T17:33:37.497Z,2.65
2023-05-18T17:36:04.513Z,2.83
2023-05-18T17:38:31.184Z,3.00
2023-05-18T17:40:57.770Z,2.65
2023-05-18T17:43:24.306Z,2.65
2023-05-18T17:45:51.029Z,3.00
2023-05-18T17:48:17.983Z,2.80
2023-05-18T17:50:45.508Z,2.40
2023-05-18T17:53:12.350Z,2.58
2023-05-18T17:55:39.136Z,2.50
2023-05-18T17:58:05.987Z,2.55
2023-05-18T18:00:32.833Z,2.60
2023-05-18T18:02:59.678Z,2.58
2023-05-18T18:05:26.418Z,2.53
2023-05-18T18:07:54.165Z,2.83
2023-05-18T18:10:21.161Z,2.53
2023-05-18T18:12:47.691Z,2.67
2023-05-18T18:15:14.303Z,2.42
2023-05-18T18:17:40.833Z,2.53
2023-05-18T18:20:08.025Z,2.45
2023-05-18T18:22:35.839Z,2.35
2023-05-18T18:27:29.178Z,2.35
2023-05-18T18:29:56.413Z,2.60
2023-05-18T18:32:22.917Z,2.67
2023-05-18T18:34:49.482Z,2.50
2023-05-18T18:37:16.022Z,2.47
2023-05-18T18:39:43.018Z,2.63
2023-05-18T18:42:09.615Z,2.45
2023-05-18T18:44:36.184Z,2.35
2023-05-18T18:47:02.777Z,2.45
2023-05-18T18:49:29.417Z,2.75
2023-05-18T18:51:58.799Z,2.63
2023-05-18T18:54:27.082Z,2.55
2023-05-18T18:59:20.874Z,2.53
2023-05-18T19:01:47.564Z,2.67
2023-05-18T19:04:14.148Z,2.90
2023-05-18T19:06:42.713Z,2.90
2023-05-18T19:09:09.358Z,2.47
2023-05-18T19:11:36.772Z,2.70
2023-05-18T19:14:04.550Z,2.55
2023-05-18T19:16:32.816Z,2.83
2023-05-18T19:18:59.530Z,2.65
2023-05-18T19:21:26.220Z,2.70
2023-05-18T19:23:52.847Z,3.25
2023-05-18T19:26:19.393Z,2.75
2023-05-18T19:28:45.906Z,3.10
2023-05-18T19:31:12.450Z,3.17
2023-05-18T19:33:39.046Z,4.00
2023-05-18T19:36:05.730Z,3.53
2023-05-18T19:38:32.250Z,3.45
2023-05-18T19:40:58.872Z,7.15
2023-05-18T19:43:25.441Z,5.47
2023-05-18T19:45:52.211Z,6.70
2023-05-18T19:48:18.840Z,3.40
2023-05-18T19:50:45.558Z,3.42
2023-05-18T19:53:12.129Z,3.30
2023-05-18T19:55:38.831Z,2.88
2023-05-18T19:58:05.529Z,3.05
2023-05-18T20:00:33.431Z,3.25
2023-05-18T20:03:02.486Z,3.47
2023-05-18T20:05:29.719Z,3.17
2023-05-18T20:07:58.180Z,3.33
2023-05-18T20:10:25.336Z,3.50
2023-05-18T20:12:51.893Z,3.28
2023-05-18T20:15:19.123Z,3.22
2023-05-18T20:17:46.072Z,3.42
2023-05-18T20:20:12.717Z,3.60
2023-05-18T20:22:39.417Z,3.47
2023-05-18T20:25:06.654Z,3.10
2023-05-18T20:27:33.246Z,3.28
2023-05-18T20:29:59.952Z,3.03
2023-05-18T20:32:27.295Z,2.85
2023-05-18T20:34:53.884Z,2.90
2023-05-18T20:37:20.502Z,3.22
2023-05-18T20:39:50.704Z,3.20
2023-05-18T20:42:22.010Z,3.05
2023-05-18T20:44:51.329Z,3.00
2023-05-18T20:47:20.375Z,2.88
2023-05-18T20:49:47.866Z,2.72
2023-05-18T20:52:14.724Z,3.20
2023-05-18T20:54:41.445Z,2.90
2023-05-18T20:57:08.073Z,3.05
2023-05-18T20:59:34.665Z,2.95
2023-05-18T21:02:01.268Z,2.92
2023-05-18T21:04:27.999Z,3.22
2023-05-18T21:06:54.532Z,3.08
2023-05-18T21:09:21.082Z,3.10
2023-05-18T21:11:48.125Z,3.05
2023-05-18T21:14:15.019Z,3.22
2023-05-18T21:16:41.677Z,3.25
2023-05-18T21:19:08.548Z,3.13
2023-05-18T21:21:35.795Z,3.13
2023-05-18T21:24:02.502Z,3.53
2023-05-18T21:26:29.120Z,3.22
2023-05-18T21:28:55.706Z,2.95
2023-05-18T21:31:22.378Z,3.17
2023-05-18T21:33:49.046Z,2.95
2023-05-18T21:36:15.986Z,3.00
2023-05-18T21:38:42.973Z,2.78
2023-05-18T21:41:09.562Z,3.00
2023-05-18T21:43:36.084Z,2.95
2023-05-18T21:46:02.675Z,3.22
2023-05-18T21:48:29.272Z,2.63
2023-05-18T21:50:55.847Z,3.30
2023-05-18T21:53:22.326Z,3.03
2023-05-18T21:55:48.835Z,2.92
2023-05-18T21:58:15.502Z,3.10
2023-05-18T22:00:42.001Z,2.88
2023-05-18T22:03:08.696Z,3.13
2023-05-18T22:05:35.309Z,3.28
2023-05-18T22:08:01.877Z,2.83
2023-05-18T22:10:30.663Z,2.83
2023-05-18T22:12:57.373Z,2.88
2023-05-18T22:15:24.041Z,3.13
2023-05-18T22:17:50.647Z,3.00
2023-05-18T22:20:17.290Z,2.75
2023-05-18T22:22:44.319Z,2.70
2023-05-18T22:25:11.051Z,3.03
2023-05-18T22:27:38.548Z,2.90
2023-05-18T22:30:06.833Z,2.78
2023-05-18T22:35:01.539Z,2.90
2023-05-18T22:37:28.059Z,3.05
2023-05-18T22:39:54.618Z,3.10
2023-05-18T22:42:22.065Z,3.20
2023-05-18T22:44:48.889Z,3.30
2023-05-18T22:47:19.664Z,3.15
2023-05-18T22:49:46.437Z,2.92
2023-05-18T22:52:13.429Z,3.33
2023-05-18T22:54:39.973Z,3.03
2023-05-18T22:57:06.583Z,2.92
2023-05-18T22:59:33.187Z,3.70
2023-05-18T23:01:59.725Z,3.63
2023-05-18T23:04:26.308Z,3.60
2023-05-18T23:06:54.122Z,3.40
2023-05-18T23:09:21.183Z,3.40
2023-05-18T23:11:48.632Z,3.05
2023-05-18T23:14:15.300Z,3.33
2023-05-18T23:16:42.914Z,3.72
2023-05-18T23:19:12.384Z,3.00
2023-05-18T23:21:42.034Z,3.35
2023-05-18T23:24:12.266Z,3.05
2023-05-18T23:26:42.483Z,3.35
2023-05-18T23:29:09.513Z,3.40
2023-05-18T23:31:36.485Z,3.45
2023-05-18T23:34:03.844Z,3.10
2023-05-18T23:36:35.065Z,3.63
2023-05-18T23:39:01.950Z,3.60
2023-05-18T23:41:31.186Z,3.50
2023-05-18T23:43:58.539Z,3.30
2023-05-18T23:46:25.834Z,3.63
2023-05-18T23:48:52.739Z,3.22
2023-05-18T23:51:20.740Z,3.63
2023-05-18T23:53:49.844Z,3.55
2023-05-18T23:56:16.935Z,3.60
2023-05-18T23:58:45.707Z,3.50
